Time;durP1;ratioP1;P1;durP2;ratioP2;P2;SDS_P1;SDS_P2;PMS_P1;PMS_P2;Temp;Humidity;BMP_temperature;BMP_pressure;BME280_temperature;BME280_humidity;BME280_pressure;Samples;Min_cycle;Max_cycle;Signal;HPM_P1;HPM_P2
2023/01/02 00:00:04;;;;;;;14.18;10.00;;;;;;;;;;10406649;28;20053;-61
2023/01/02 00:05:04;;;;;;;14.18;9.45;;;;;;;;;;10400902;28;20072;-61
2023/01/02 00:10:05;;;;;;;17.57;10.60;;;;;;;;;;10406805;28;20079;-61
2023/01/02 00:15:06;;;;;;;17.20;9.30;;;;;;;;;;10406310;28;20025;-62
2023/01/02 00:20:06;;;;;;;14.75;10.07;;;;;;;;;;10399317;28;20025;-62
2023/01/02 00:25:08;;;;;;;14.15;9.85;;;;;;;;;;10406928;28;20104;-62
2023/01/02 00:30:08;;;;;;;16.05;9.43;;;;;;;;;;10406627;28;20092;-62
2023/01/02 00:35:09;;;;;;;17.02;9.45;;;;;;;;;;10406496;28;20116;-62
2023/01/02 00:40:12;;;;;;;14.35;9.45;;;;;;;;;;10406462;28;20469;-62
2023/01/02 00:45:13;;;;;;;13.95;9.50;;;;;;;;;;10406131;28;20489;-62
2023/01/02 00:50:13;;;;;;;14.68;9.55;;;;;;;;;;10407728;28;20108;-62
2023/01/02 00:55:13;;;;;;;14.03;9.10;;;;;;;;;;10413541;28;20029;-62
2023/01/02 01:00:14;;;;;;;13.50;9.77;;;;;;;;;;10413412;28;20025;-62
2023/01/02 01:05:14;;;;;;;15.75;9.27;;;;;;;;;;10413464;28;20087;-62
2023/01/02 01:10:15;;;;;;;17.50;10.05;;;;;;;;;;10412883;28;20026;-63
2023/01/02 01:15:15;;;;;;;15.25;8.70;;;;;;;;;;10412503;28;20124;-62
2023/01/02 01:20:15;;;;;;;12.40;9.43;;;;;;;;;;10412540;28;20025;-62
2023/01/02 01:25:15;;;;;;;13.23;8.90;;;;;;;;;;10412419;28;20028;-62
2023/01/02 01:30:16;;;;;;;18.63;8.55;;;;;;;;;;10387119;28;20052;-62
2023/01/02 01:35:16;;;;;;;13.00;8.95;;;;;;;;;;10402596;28;20030;-62
2023/01/02 01:40:16;;;;;;;15.25;8.80;;;;;;;;;;10404790;28;20112;-62
2023/01/02 01:45:17;;;;;;;15.57;8.40;;;;;;;;;;10404424;28;20084;-62
2023/01/02 01:50:20;;;;;;;16.23;9.43;;;;;;;;;;10411603;28;20033;-62
2023/01/02 01:55:27;;;;;;;13.93;9.82;;;;;;;;;;10411135;28;20029;-62
2023/01/02 02:00:28;;;;;;;20.80;8.85;;;;;;;;;;10410293;28;20488;-62
2023/01/02 02:05:29;;;;;;;14.00;8.60;;;;;;;;;;10410401;28;20026;-62
2023/01/02 02:10:30;;;;;;;16.20;9.75;;;;;;;;;;10410518;28;20044;-62
2023/01/02 02:15:38;;;;;;;11.88;8.57;;;;;;;;;;10410342;28;20040;-62
2023/01/02 02:20:38;;;;;;;11.93;8.23;;;;;;;;;;10403737;28;20048;-62
2023/01/02 02:25:57;;;;;;;12.88;8.98;;;;;;;;;;10410030;28;20044;-62
2023/01/02 02:31:05;;;;;;;13.48;9.02;;;;;;;;;;10407342;28;20136;-62
2023/01/02 02:36:16;;;;;;;12.13;8.75;;;;;;;;;;10397804;28;20363;-62
2023/01/02 02:41:19;;;;;;;13.00;8.75;;;;;;;;;;10409643;28;20017;-62
2023/01/02 02:46:38;;;;;;;13.93;8.32;;;;;;;;;;10408900;28;20025;-62
2023/01/02 02:51:38;;;;;;;;;;;;;;;;;;10403352;28;20029;-62
2023/01/02 02:56:40;;;;;;;12.85;9.10;;;;;;;;;;10408953;28;20296;-62
2023/01/02 03:01:40;;;;;;;12.32;8.73;;;;;;;;;;10408996;28;20445;-62
2023/01/02 03:06:45;;;;;;;11.63;8.90;;;;;;;;;;10408491;28;20113;-62
2023/01/02 03:11:54;;;;;;;11.18;8.57;;;;;;;;;;10408457;28;20068;-62
2023/01/02 03:17:02;;;;;;;12.70;8.85;;;;;;;;;;10408047;28;20029;-62
2023/01/02 03:22:03;;;;;;;;;;;;;;;;;;10409071;28;20116;-62
2023/01/02 03:27:09;;;;;;;14.57;9.23;;;;;;;;;;10407752;28;19923;-62
2023/01/02 03:32:11;;;;;;;12.73;8.75;;;;;;;;;;10407339;28;20141;-62
2023/01/02 03:37:14;;;;;;;12.57;8.95;;;;;;;;;;10396689;28;20041;-62
2023/01/02 03:42:19;;;;;;;12.73;9.13;;;;;;;;;;10404585;28;20034;-62
2023/01/02 03:47:22;;;;;;;12.95;8.85;;;;;;;;;;10405813;28;20423;-62
2023/01/02 03:52:22;;;;;;;13.00;8.88;;;;;;;;;;10407531;28;20025;-62
2023/01/02 03:57:31;;;;;;;17.85;10.15;;;;;;;;;;10405839;28;20033;-62
2023/01/02 04:02:35;;;;;;;14.18;9.82;;;;;;;;;;10406754;28;20496;-62
2023/01/02 04:07:38;;;;;;;13.23;9.20;;;;;;;;;;10407287;28;20018;-61
2023/01/02 04:12:39;;;;;;;12.82;9.63;;;;;;;;;;10405552;28;20377;-62
2023/01/02 04:17:42;;;;;;;15.90;9.27;;;;;;;;;;10400290;28;20030;-61
2023/01/02 04:22:49;;;;;;;15.98;9.52;;;;;;;;;;10406670;28;20489;-62
2023/01/02 04:28:00;;;;;;;13.27;9.55;;;;;;;;;;10414183;28;20112;-62
2023/01/02 04:33:04;;;;;;;12.80;9.57;;;;;;;;;;10414129;28;20599;-62
2023/01/02 04:38:08;;;;;;;12.82;9.15;;;;;;;;;;10405058;28;20381;-62
2023/01/02 04:43:19;;;;;;;13.05;9.57;;;;;;;;;;10414193;28;20040;-62
2023/01/02 04:48:19;;;;;;;15.02;9.80;;;;;;;;;;10412186;28;20120;-62
2023/01/02 04:53:20;;;;;;;14.60;10.10;;;;;;;;;;10413932;28;20487;-63
2023/01/02 04:58:20;;;;;;;14.13;9.30;;;;;;;;;;10413333;28;20064;-62
2023/01/02 05:03:20;;;;;;;12.20;9.43;;;;;;;;;;10413307;28;20334;-62
2023/01/02 05:08:21;;;;;;;11.00;8.80;;;;;;;;;;10412284;28;20512;-62
2023/01/02 05:13:21;;;;;;;12.52;8.80;;;;;;;;;;10413541;28;20034;-62
2023/01/02 05:18:21;;;;;;;12.25;8.88;;;;;;;;;;10412805;28;20029;-61
2023/01/02 05:28:40;;;;;;;13.57;8.93;;;;;;;;;;10412571;28;20095;-62
2023/01/02 05:33:40;;;;;;;11.38;8.40;;;;;;;;;;10412321;28;20053;-63
2023/01/02 05:38:41;;;;;;;13.13;9.27;;;;;;;;;;10402175;28;20029;-62
2023/01/02 05:43:41;;;;;;;16.27;9.00;;;;;;;;;;10411540;28;20017;-62
2023/01/02 05:48:41;;;;;;;10.17;8.43;;;;;;;;;;10409475;28;20083;-61
2023/01/02 05:53:42;;;;;;;23.48;9.32;;;;;;;;;;10410641;28;20021;-62
2023/01/02 05:58:44;;;;;;;15.03;9.13;;;;;;;;;;10410880;28;20040;-62
2023/01/02 06:03:44;;;;;;;12.60;9.27;;;;;;;;;;10408235;28;20048;-61
2023/01/02 06:08:45;;;;;;;13.32;9.38;;;;;;;;;;10407712;28;20038;-62
2023/01/02 06:13:45;;;;;;;12.57;9.03;;;;;;;;;;10410965;28;20377;-62
2023/01/02 06:18:46;;;;;;;17.63;9.05;;;;;;;;;;10410242;28;20455;-62
2023/01/02 06:23:46;;;;;;;14.57;8.68;;;;;;;;;;10409688;28;20072;-62
2023/01/02 06:28:54;;;;;;;11.30;8.40;;;;;;;;;;10409311;28;20049;-62
2023/01/02 06:33:55;;;;;;;17.08;8.48;;;;;;;;;;10409142;28;20029;-63
2023/01/02 06:38:56;;;;;;;18.58;9.45;;;;;;;;;;10408580;28;20025;-61
2023/01/02 06:43:56;;;;;;;12.80;8.60;;;;;;;;;;10409217;28;20024;-62
2023/01/02 06:48:56;;;;;;;16.63;8.45;;;;;;;;;;10401872;28;20028;-62
2023/01/02 06:53:56;;;;;;;11.68;8.23;;;;;;;;;;10406227;28;20057;-62
2023/01/02 06:58:57;;;;;;;13.67;8.87;;;;;;;;;;10395259;28;20033;-62
2023/01/02 07:03:57;;;;;;;18.63;9.32;;;;;;;;;;10403253;28;20033;-62
2023/01/02 07:08:58;;;;;;;15.35;9.02;;;;;;;;;;10406006;28;20091;-62
2023/01/02 07:13:58;;;;;;;16.85;9.50;;;;;;;;;;10407513;28;20022;-62
2023/01/02 07:18:58;;;;;;;20.52;9.77;;;;;;;;;;10403531;28;20037;-62
2023/01/02 07:23:58;;;;;;;21.70;9.50;;;;;;;;;;10400546;28;20037;-62
2023/01/02 07:28:59;;;;;;;20.75;10.23;;;;;;;;;;10407286;28;20053;-62
2023/01/02 07:33:59;;;;;;;15.57;10.60;;;;;;;;;;10407537;28;20037;-62
2023/01/02 07:38:59;;;;;;;16.63;9.93;;;;;;;;;;10398022;28;20280;-62
2023/01/02 07:43:59;;;;;;;17.65;10.13;;;;;;;;;;10401501;28;20026;-62
2023/01/02 07:49:00;;;;;;;18.75;10.65;;;;;;;;;;10406002;28;20492;-62
2023/01/02 07:54:00;;;;;;;17.92;10.30;;;;;;;;;;10407182;28;20036;-62
2023/01/02 07:59:00;;;;;;;17.90;10.15;;;;;;;;;;10409091;28;20041;-62
2023/01/02 08:04:01;;;;;;;22.20;11.70;;;;;;;;;;10415268;28;20022;-62
2023/01/02 08:09:01;;;;;;;21.33;11.87;;;;;;;;;;10415482;28;20026;-62
2023/01/02 08:14:01;;;;;;;19.00;11.20;;;;;;;;;;10415209;28;20126;-62
2023/01/02 08:19:02;;;;;;;19.70;11.32;;;;;;;;;;10415030;28;20381;-62
2023/01/02 08:24:02;;;;;;;22.45;12.63;;;;;;;;;;10415039;28;20362;-62
2023/01/02 08:29:03;;;;;;;20.20;12.15;;;;;;;;;;10414605;28;20084;-62
2023/01/02 08:34:03;;;;;;;18.63;11.20;;;;;;;;;;10414274;28;20469;-62
2023/01/02 08:39:03;;;;;;;19.27;11.90;;;;;;;;;;10403598;28;20038;-62
2023/01/02 08:44:03;;;;;;;17.35;11.68;;;;;;;;;;10413044;28;20682;-62
2023/01/02 08:49:04;;;;;;;21.13;12.20;;;;;;;;;;10413463;28;20465;-62
2023/01/02 08:54:04;;;;;;;13.98;10.85;;;;;;;;;;10413637;28;20447;-62
2023/01/02 08:59:05;;;;;;;17.48;11.43;;;;;;;;;;10413213;28;20032;-62
2023/01/02 09:04:06;;;;;;;23.00;11.82;;;;;;;;;;10413539;28;20695;-62
2023/01/02 09:09:07;;;;;;;17.83;11.07;;;;;;;;;;10412333;28;20302;-62
2023/01/02 09:14:07;;;;;;;16.48;11.68;;;;;;;;;;10413039;28;20025;-62
2023/01/02 09:19:07;;;;;;;18.15;11.70;;;;;;;;;;10412643;28;20030;-62
2023/01/02 09:24:08;;;;;;;16.63;11.23;;;;;;;;;;10412607;28;20026;-62
2023/01/02 09:29:12;;;;;;;18.88;11.18;;;;;;;;;;10411996;28;20119;-62
2023/01/02 09:34:12;;;;;;;19.80;12.35;;;;;;;;;;10412568;28;20021;-62
2023/01/02 09:39:13;;;;;;;17.48;10.90;;;;;;;;;;10401693;28;20396;-62
2023/01/02 09:44:17;;;;;;;18.43;10.97;;;;;;;;;;10406398;28;20520;-62
2023/01/02 09:49:20;;;;;;;17.63;11.48;;;;;;;;;;10411161;28;20381;-62
2023/01/02 09:54:30;;;;;;;21.38;11.05;;;;;;;;;;10411471;28;20469;-62
2023/01/02 09:59:32;;;;;;;17.33;11.07;;;;;;;;;;10411346;28;20176;-62
2023/01/02 10:04:47;;;;;;;15.02;10.95;;;;;;;;;;10410953;28;20092;-62
2023/01/02 10:10:01;;;;;;;18.02;11.27;;;;;;;;;;10410617;28;20219;-62
2023/01/02 10:15:04;;;;;;;17.30;11.55;;;;;;;;;;10408191;28;20049;-62
2023/01/02 10:20:04;;;;;;;18.80;10.70;;;;;;;;;;10410684;28;20435;-62
2023/01/02 10:25:31;;;;;;;18.57;11.37;;;;;;;;;;10409834;28;20083;-62
2023/01/02 10:30:45;;;;;;;17.75;11.23;;;;;;;;;;10404951;28;20409;-62
2023/01/02 10:35:57;;;;;;;19.80;10.82;;;;;;;;;;10399620;28;20033;-62
2023/01/02 10:40:57;;;;;;;19.92;10.90;;;;;;;;;;10407294;28;20045;-62
2023/01/02 10:45:59;;;;;;;16.92;10.90;;;;;;;;;;10407366;28;20025;-62
2023/01/02 10:51:01;;;;;;;15.60;11.10;;;;;;;;;;10408873;28;20022;-62
2023/01/02 10:56:19;;;;;;;18.48;11.68;;;;;;;;;;10408752;28;20033;-62
2023/01/02 11:01:20;;;;;;;16.23;11.60;;;;;;;;;;10409028;28;20025;-62
2023/01/02 11:06:30;;;;;;;23.73;12.75;;;;;;;;;;10408438;28;20063;-62
2023/01/02 11:11:31;;;;;;;23.27;13.60;;;;;;;;;;10408155;28;20378;-62
2023/01/02 11:16:35;;;;;;;23.13;13.48;;;;;;;;;;10408159;28;20026;-62
2023/01/02 11:21:38;;;;;;;20.15;12.90;;;;;;;;;;10408177;28;20048;-62
2023/01/02 11:26:39;;;;;;;21.58;14.38;;;;;;;;;;10407919;28;20481;-62
2023/01/02 11:31:50;;;;;;;23.23;13.60;;;;;;;;;;10407307;28;20053;-62
2023/01/02 11:37:01;;;;;;;21.63;13.40;;;;;;;;;;10399327;28;20025;-62
2023/01/02 11:47:34;;;;;;;18.75;12.30;;;;;;;;;;10400933;28;20037;-62
2023/01/02 11:52:47;;;;;;;18.10;12.98;;;;;;;;;;10407343;28;20477;-62
2023/01/02 11:57:50;;;;;;;20.52;12.55;;;;;;;;;;10407437;28;20192;-62
2023/01/02 12:02:51;;;;;;;19.38;13.15;;;;;;;;;;10407379;28;20033;-62
2023/01/02 12:08:00;;;;;;;17.63;12.45;;;;;;;;;;10407565;28;20017;-62
2023/01/02 12:13:06;;;;;;;19.13;11.83;;;;;;;;;;10407486;28;20078;-62
2023/01/02 12:18:44;;;;;;;20.23;12.20;;;;;;;;;;10406331;28;20021;-62
2023/01/02 12:23:53;;;;;;;19.08;12.73;;;;;;;;;;10311947;28;20031;-62
2023/01/02 12:28:59;;;;;;;17.27;12.05;;;;;;;;;;10309958;28;20424;-62
2023/01/02 12:34:14;;;;;;;18.40;12.75;;;;;;;;;;10297899;28;20533;-62
2023/01/02 12:39:29;;;;;;;20.75;12.40;;;;;;;;;;10316013;28;20042;-62
2023/01/02 12:44:52;;;;;;;19.40;11.77;;;;;;;;;;10316911;28;20027;-62
2023/01/02 12:50:04;;;;;;;18.50;12.10;;;;;;;;;;10321199;28;20026;-62
2023/01/02 12:55:21;;;;;;;19.98;11.82;;;;;;;;;;10399289;28;20092;-62
2023/01/02 13:00:40;;;;;;;17.80;11.88;;;;;;;;;;10406279;28;20029;-62
2023/01/02 13:05:51;;;;;;;20.83;11.45;;;;;;;;;;10412936;28;20029;-62
2023/01/02 13:10:52;;;;;;;16.25;11.32;;;;;;;;;;10411725;28;20029;-62
2023/01/02 13:15:55;;;;;;;15.70;10.07;;;;;;;;;;10412348;28;20380;-62
2023/01/02 13:21:08;;;;;;;17.35;11.18;;;;;;;;;;10406650;28;20461;-62
2023/01/02 13:26:20;;;;;;;18.10;10.65;;;;;;;;;;10410533;28;20477;-62
2023/01/02 13:31:20;;;;;;;16.52;10.52;;;;;;;;;;10412526;28;20049;-62
2023/01/02 13:36:22;;;;;;;13.52;9.50;;;;;;;;;;10402364;28;20022;-62
2023/01/02 13:41:22;;;;;;;15.25;10.48;;;;;;;;;;10409746;28;20030;-62
2023/01/02 13:46:27;;;;;;;15.95;10.40;;;;;;;;;;10410268;28;20029;-62
2023/01/02 13:51:29;;;;;;;13.82;9.88;;;;;;;;;;10401555;28;20037;-62
2023/01/02 13:56:29;;;;;;;13.60;9.68;;;;;;;;;;10390368;28;20441;-62
2023/01/02 14:01:38;;;;;;;12.27;9.63;;;;;;;;;;10404361;28;20033;-62
2023/01/02 14:06:38;;;;;;;;;;;;;;;;;;10392940;28;20033;-62
2023/01/02 14:11:44;;;;;;;13.30;10.00;;;;;;;;;;10387348;28;20339;-62
2023/01/02 14:16:57;;;;;;;13.35;8.45;;;;;;;;;;10400670;28;20033;-62
2023/01/02 14:21:57;;;;;;;12.50;8.80;;;;;;;;;;10393922;28;20030;-62
2023/01/02 14:27:15;;;;;;;14.38;9.82;;;;;;;;;;10409681;28;20048;-62
2023/01/02 14:32:18;;;;;;;12.50;8.88;;;;;;;;;;10401742;28;20133;-61
2023/01/02 14:37:27;;;;;;;12.73;8.57;;;;;;;;;;10376833;28;20461;-62
2023/01/02 14:47:52;;;;;;;13.38;9.50;;;;;;;;;;10390795;28;20037;-62
2023/01/02 14:53:08;;;;;;;10.60;8.05;;;;;;;;;;10400870;28;20464;-62
2023/01/02 14:58:16;;;;;;;11.70;8.55;;;;;;;;;;10405158;28;20036;-62
2023/01/02 15:03:35;;;;;;;13.03;8.67;;;;;;;;;;10394862;28;20037;-62
2023/01/02 15:08:41;;;;;;;11.10;8.57;;;;;;;;;;10396029;28;20041;-62
2023/01/02 15:13:46;;;;;;;10.88;8.68;;;;;;;;;;10401014;28;20026;-62
2023/01/02 15:18:49;;;;;;;12.40;8.10;;;;;;;;;;10394526;28;20495;-63
2023/01/02 15:23:50;;;;;;;10.30;8.38;;;;;;;;;;10406980;28;20029;-63
2023/01/02 15:29:01;;;;;;;9.98;7.72;;;;;;;;;;10427254;23;20079;-59
2023/01/02 15:34:02;;;;;;;13.48;8.43;;;;;;;;;;10416026;28;20469;-59
2023/01/02 15:39:08;;;;;;;12.20;8.15;;;;;;;;;;10415310;28;20033;-59
2023/01/02 15:49:30;;;;;;;10.48;7.63;;;;;;;;;;10415091;28;20037;-59
2023/01/02 15:54:32;;;;;;;10.35;7.60;;;;;;;;;;10415608;28;20029;-59
2023/01/02 15:59:34;;;;;;;11.70;7.47;;;;;;;;;;10415508;28;20398;-59
2023/01/02 16:04:34;;;;;;;11.27;7.63;;;;;;;;;;10414752;28;20442;-60
2023/01/02 16:09:36;;;;;;;10.55;8.15;;;;;;;;;;10414595;28;20049;-59
2023/01/02 16:14:42;;;;;;;9.30;7.30;;;;;;;;;;10415702;28;20018;-59
2023/01/02 16:19:43;;;;;;;10.68;7.53;;;;;;;;;;10417321;28;20040;-59
2023/01/02 16:24:49;;;;;;;9.40;7.40;;;;;;;;;;10422400;28;20032;-59
2023/01/02 16:29:51;;;;;;;10.05;7.40;;;;;;;;;;10424538;28;20076;-59
2023/01/02 16:35:00;;;;;;;8.50;7.13;;;;;;;;;;10423191;28;20049;-59
2023/01/02 16:40:20;;;;;;;11.32;7.40;;;;;;;;;;10421985;28;20382;-58
2023/01/02 16:45:21;;;;;;;11.13;6.43;;;;;;;;;;10422082;28;20105;-59
2023/01/02 16:50:23;;;;;;;10.05;7.35;;;;;;;;;;10423218;28;20116;-59
2023/01/02 16:55:24;;;;;;;10.63;7.15;;;;;;;;;;10421258;28;20037;-59
2023/01/02 17:00:24;;;;;;;10.10;7.15;;;;;;;;;;10421190;28;20030;-59
2023/01/02 17:05:35;;;;;;;8.57;7.30;;;;;;;;;;10420939;28;20026;-59
2023/01/02 17:10:36;;;;;;;9.50;6.70;;;;;;;;;;10420724;28;20124;-59
2023/01/02 17:15:39;;;;;;;8.27;6.75;;;;;;;;;;10420512;28;20104;-59
2023/01/02 17:20:40;;;;;;;9.45;7.03;;;;;;;;;;10420939;28;20030;-59
2023/01/02 17:25:44;;;;;;;8.65;6.55;;;;;;;;;;10419958;28;20042;-59
2023/01/02 17:30:48;;;;;;;9.57;7.18;;;;;;;;;;10419578;28;20468;-59
2023/01/02 17:35:51;;;;;;;12.38;7.43;;;;;;;;;;10420254;28;20033;-59
2023/01/02 17:40:57;;;;;;;9.40;7.80;;;;;;;;;;10421353;28;20060;-59
2023/01/02 17:45:57;;;;;;;13.88;8.70;;;;;;;;;;10419923;28;20025;-59
2023/01/02 17:50:58;;;;;;;12.83;8.90;;;;;;;;;;10419191;28;20029;-59
2023/01/02 17:55:59;;;;;;;12.82;8.68;;;;;;;;;;10419359;28;20431;-59
2023/01/02 18:01:00;;;;;;;11.70;7.68;;;;;;;;;;10418856;28;20022;-59
2023/01/02 18:06:04;;;;;;;11.27;8.35;;;;;;;;;;10419165;28;20040;-59
2023/01/02 18:11:09;;;;;;;11.40;8.18;;;;;;;;;;10419449;28;20099;-59
2023/01/02 18:16:13;;;;;;;11.75;8.30;;;;;;;;;;10418145;28;20022;-60
2023/01/02 18:21:15;;;;;;;11.10;7.82;;;;;;;;;;10418596;28;20076;-59
2023/01/02 18:26:17;;;;;;;13.88;8.07;;;;;;;;;;10417962;28;20041;-59
2023/01/02 18:31:19;;;;;;;12.35;7.88;;;;;;;;;;10418197;28;20120;-59
2023/01/02 18:36:21;;;;;;;13.52;8.25;;;;;;;;;;10417970;28;20112;-60
2023/01/02 18:41:24;;;;;;;13.90;7.78;;;;;;;;;;10416943;28;20025;-59
2023/01/02 18:46:31;;;;;;;11.15;7.65;;;;;;;;;;10416621;28;20048;-59
2023/01/02 18:51:33;;;;;;;10.27;7.43;;;;;;;;;;10416865;28;20029;-59
2023/01/02 18:56:34;;;;;;;10.80;7.70;;;;;;;;;;10416558;28;20053;-59
2023/01/02 19:01:38;;;;;;;11.05;7.10;;;;;;;;;;10416486;28;20087;-59
2023/01/02 19:06:49;;;;;;;11.18;7.47;;;;;;;;;;10416514;28;20112;-59
2023/01/02 19:17:35;;;;;;;11.02;7.53;;;;;;;;;;10415947;28;20481;-59
2023/01/02 19:22:36;;;;;;;12.95;8.10;;;;;;;;;;10415856;28;20117;-58
2023/01/02 19:27:38;;;;;;;13.95;8.00;;;;;;;;;;10415297;28;20050;-59
2023/01/02 19:32:38;;;;;;;15.27;10.25;;;;;;;;;;10416005;28;20068;-59
2023/01/02 19:37:40;;;;;;;28.08;9.38;;;;;;;;;;10415311;28;20049;-59
2023/01/02 19:42:40;;;;;;;12.00;8.80;;;;;;;;;;10415864;28;20029;-59
2023/01/02 19:47:42;;;;;;;13.48;8.00;;;;;;;;;;10416244;28;20096;-59
2023/01/02 19:52:42;;;;;;;19.15;9.43;;;;;;;;;;10415056;28;20039;-59
2023/01/02 19:57:44;;;;;;;14.20;7.97;;;;;;;;;;10423541;28;20032;-59
2023/01/02 20:02:47;;;;;;;13.32;8.82;;;;;;;;;;10423958;28;20116;-59
2023/01/02 20:07:48;;;;;;;11.73;8.13;;;;;;;;;;10423067;28;20030;-59
2023/01/02 20:12:49;;;;;;;15.63;8.38;;;;;;;;;;10422869;28;20045;-59
2023/01/02 20:17:52;;;;;;;11.02;7.82;;;;;;;;;;10422803;28;20105;-59
2023/01/02 20:22:53;;;;;;;15.57;7.90;;;;;;;;;;10422354;28;20049;-59
2023/01/02 20:27:54;;;;;;;13.23;8.50;;;;;;;;;;10422203;28;20050;-59
2023/01/02 20:32:56;;;;;;;12.48;8.20;;;;;;;;;;10422219;28;20030;-59
2023/01/02 20:37:56;;;;;;;12.07;7.93;;;;;;;;;;10423196;28;20022;-59
2023/01/02 20:42:57;;;;;;;16.50;7.93;;;;;;;;;;10421951;28;20116;-59
2023/01/02 20:47:58;;;;;;;12.95;7.72;;;;;;;;;;10422179;28;20104;-59
2023/01/02 20:52:59;;;;;;;15.50;8.35;;;;;;;;;;10421450;28;20417;-59
2023/01/02 20:58:00;;;;;;;12.65;7.95;;;;;;;;;;10422462;28;20072;-59
2023/01/02 21:03:01;;;;;;;15.75;7.82;;;;;;;;;;10421170;28;20022;-59
2023/01/02 21:08:02;;;;;;;10.55;7.05;;;;;;;;;;10421348;28;20021;-60
2023/01/02 21:13:06;;;;;;;13.70;7.30;;;;;;;;;;10421253;28;20036;-59
2023/01/02 21:18:07;;;;;;;10.73;7.53;;;;;;;;;;10420544;28;20028;-59
2023/01/02 21:23:09;;;;;;;13.02;7.65;;;;;;;;;;10420388;28;20068;-60
2023/01/02 21:28:13;;;;;;;16.13;7.10;;;;;;;;;;10420096;28;20045;-59
2023/01/02 21:33:16;;;;;;;14.60;7.45;;;;;;;;;;10419811;28;20539;-60
2023/01/02 21:38:18;;;;;;;16.38;7.80;;;;;;;;;;10420861;28;20029;-59
2023/01/02 21:43:19;;;;;;;10.70;7.28;;;;;;;;;;10419626;28;20056;-59
2023/01/02 21:48:20;;;;;;;12.48;6.90;;;;;;;;;;10419612;28;20025;-59
2023/01/02 21:53:21;;;;;;;9.67;7.17;;;;;;;;;;10419755;28;20108;-59
2023/01/02 21:58:22;;;;;;;11.10;6.82;;;;;;;;;;10419079;28;20514;-59
2023/01/02 22:03:22;;;;;;;10.73;6.75;;;;;;;;;;10418848;28;20112;-60
2023/01/02 22:08:23;;;;;;;11.82;6.60;;;;;;;;;;10418534;28;20034;-60
2023/01/02 22:13:24;;;;;;;11.82;7.45;;;;;;;;;;10418989;28;20030;-59
2023/01/02 22:18:24;;;;;;;9.98;6.65;;;;;;;;;;10417134;28;20029;-59
2023/01/02 22:23:25;;;;;;;16.15;8.02;;;;;;;;;;10419163;28;20033;-59
2023/01/02 22:28:26;;;;;;;10.73;7.10;;;;;;;;;;10417804;28;20052;-59
2023/01/02 22:33:26;;;;;;;8.88;6.70;;;;;;;;;;10418111;28;20034;-59
2023/01/02 22:38:27;;;;;;;13.23;7.17;;;;;;;;;;10417403;28;20061;-59
2023/01/02 22:43:31;;;;;;;11.23;7.28;;;;;;;;;;10417818;28;20439;-59
2023/01/02 22:48:35;;;;;;;9.77;6.32;;;;;;;;;;10416971;28;20022;-59
2023/01/02 22:53:37;;;;;;;9.93;6.90;;;;;;;;;;10416672;28;20057;-59
2023/01/02 22:58:38;;;;;;;13.63;6.78;;;;;;;;;;10417194;28;20033;-59
2023/01/02 23:03:40;;;;;;;14.00;7.07;;;;;;;;;;10417673;28;20040;-59
2023/01/02 23:08:41;;;;;;;11.10;7.15;;;;;;;;;;10416810;28;20025;-59
2023/01/02 23:13:42;;;;;;;16.73;7.32;;;;;;;;;;10416704;28;20034;-59
2023/01/02 23:24:02;;;;;;;20.80;8.27;;;;;;;;;;10416451;28;20029;-58
2023/01/02 23:29:04;;;;;;;17.35;8.23;;;;;;;;;;10415194;28;20049;-58
2023/01/02 23:34:05;;;;;;;18.60;8.90;;;;;;;;;;10415574;28;20112;-58
2023/01/02 23:39:07;;;;;;;21.95;8.57;;;;;;;;;;10415398;28;20024;-58
2023/01/02 23:44:08;;;;;;;17.00;8.82;;;;;;;;;;10415851;28;20036;-59
2023/01/02 23:49:10;;;;;;;22.40;9.18;;;;;;;;;;10415078;28;20368;-59
2023/01/02 23:54:11;;;;;;;19.38;8.23;;;;;;;;;;10415137;28;20025;-58
2023/01/02 23:59:14;;;;;;;18.35;8.23;;;;;;;;;;10414915;28;20056;-58
